sensor_id;sensor_type;location;lat;lon;timestamp;pressure;altitude;pressure_sealevel;temperature;humidity
12219;BME280;6172;42.646;23.344;2023-02-03T00:01:54;94793.56;;;0.86;100.00
12219;BME280;6172;42.646;23.344;2023-02-03T00:04:22;94795.34;;;0.98;100.00
12219;BME280;6172;42.646;23.344;2023-02-03T00:06:49;94787.94;;;0.91;100.00
12219;BME280;6172;42.646;23.344;2023-02-03T00:09:16;94786.31;;;0.87;100.00
12219;BME280;6172;42.646;23.344;2023-02-03T00:11:44;94793.03;;;0.96;100.00
12219;BME280;6172;42.646;23.344;2023-02-03T00:14:11;94789.78;;;0.87;100.00
12219;BME280;6172;42.646;23.344;2023-02-03T00:16:38;94802.78;;;0.69;100.00
12219;BME280;6172;42.646;23.344;2023-02-03T00:19:05;94806.16;;;0.66;100.00
12219;BME280;6172;42.646;23.344;2023-02-03T00:21:33;94802.19;;;0.60;100.00
12219;BME280;6172;42.646;23.344;2023-02-03T00:24:00;94801.28;;;0.72;100.00
12219;BME280;6172;42.646;23.344;2023-02-03T00:26:28;94799.31;;;0.69;100.00
12219;BME280;6172;42.646;23.344;2023-02-03T00:28:54;94802.25;;;0.48;100.00
12219;BME280;6172;42.646;23.344;2023-02-03T00:31:23;94802.00;;;0.53;100.00
12219;BME280;6172;42.646;23.344;2023-02-03T00:33:52;94813.25;;;0.43;100.00
12219;BME280;6172;42.646;23.344;2023-02-03T00:36:20;94811.44;;;0.32;100.00
12219;BME280;6172;42.646;23.344;2023-02-03T00:38:48;94827.28;;;0.37;100.00
12219;BME280;6172;42.646;23.344;2023-02-03T00:41:15;94827.28;;;0.52;100.00
12219;BME280;6172;42.646;23.344;2023-02-03T00:43:42;94827.63;;;0.51;100.00
12219;BME280;6172;42.646;23.344;2023-02-03T00:46:09;94827.88;;;0.30;100.00
12219;BME280;6172;42.646;23.344;2023-02-03T00:48:36;94825.47;;;0.41;100.00
12219;BME280;6172;42.646;23.344;2023-02-03T00:51:03;94841.25;;;0.61;100.00
12219;BME280;6172;42.646;23.344;2023-02-03T00:53:30;94829.84;;;0.49;100.00
12219;BME280;6172;42.646;23.344;2023-02-03T00:55:59;94830.03;;;0.40;100.00
12219;BME280;6172;42.646;23.344;2023-02-03T00:58:26;94843.38;;;0.37;100.00
12219;BME280;6172;42.646;23.344;2023-02-03T01:00:53;94835.31;;;0.37;100.00
12219;BME280;6172;42.646;23.344;2023-02-03T01:03:21;94836.19;;;0.41;100.00
12219;BME280;6172;42.646;23.344;2023-02-03T01:05:48;94837.84;;;0.45;100.00
12219;BME280;6172;42.646;23.344;2023-02-03T01:08:15;94840.94;;;0.47;100.00
12219;BME280;6172;42.646;23.344;2023-02-03T01:10:42;94865.00;;;0.44;100.00
12219;BME280;6172;42.646;23.344;2023-02-03T01:13:11;94859.97;;;0.42;100.00
12219;BME280;6172;42.646;23.344;2023-02-03T01:15:44;94843.78;;;0.39;100.00
12219;BME280;6172;42.646;23.344;2023-02-03T01:18:12;94856.38;;;0.23;100.00
12219;BME280;6172;42.646;23.344;2023-02-03T01:20:39;94851.53;;;0.28;100.00
12219;BME280;6172;42.646;23.344;2023-02-03T01:23:06;94851.41;;;0.37;100.00
12219;BME280;6172;42.646;23.344;2023-02-03T01:25:34;94836.88;;;0.38;100.00
12219;BME280;6172;42.646;23.344;2023-02-03T01:28:00;94821.47;;;0.19;100.00
12219;BME280;6172;42.646;23.344;2023-02-03T01:30:32;94845.31;;;0.40;100.00
12219;BME280;6172;42.646;23.344;2023-02-03T01:32:59;94820.69;;;0.19;100.00
12219;BME280;6172;42.646;23.344;2023-02-03T01:35:26;94840.91;;;0.16;100.00
12219;BME280;6172;42.646;23.344;2023-02-03T01:37:53;94843.94;;;0.15;100.00
12219;BME280;6172;42.646;23.344;2023-02-03T01:40:20;94845.47;;;0.16;100.00
12219;BME280;6172;42.646;23.344;2023-02-03T01:42:47;94843.72;;;-0.08;100.00
12219;BME280;6172;42.646;23.344;2023-02-03T01:45:14;94855.69;;;0.26;100.00
12219;BME280;6172;42.646;23.344;2023-02-03T01:47:48;94854.88;;;0.10;100.00
12219;BME280;6172;42.646;23.344;2023-02-03T01:50:21;94841.72;;;-0.11;100.00
12219;BME280;6172;42.646;23.344;2023-02-03T01:52:53;94854.28;;;0.01;100.00
12219;BME280;6172;42.646;23.344;2023-02-03T01:55:26;94866.41;;;0.10;100.00
12219;BME280;6172;42.646;23.344;2023-02-03T01:57:57;94872.09;;;0.09;100.00
12219;BME280;6172;42.646;23.344;2023-02-03T02:00:25;94874.94;;;0.00;100.00
12219;BME280;6172;42.646;23.344;2023-02-03T02:02:55;94871.22;;;0.05;100.00
12219;BME280;6172;42.646;23.344;2023-02-03T02:05:27;94865.38;;;0.15;100.00
12219;BME280;6172;42.646;23.344;2023-02-03T02:07:57;94870.63;;;0.11;100.00
12219;BME280;6172;42.646;23.344;2023-02-03T02:10:25;94875.97;;;-0.04;100.00
12219;BME280;6172;42.646;23.344;2023-02-03T02:12:54;94881.84;;;0.01;100.00
12219;BME280;6172;42.646;23.344;2023-02-03T02:15:25;94888.84;;;0.06;100.00
12219;BME280;6172;42.646;23.344;2023-02-03T02:18:10;94880.66;;;0.14;100.00
12219;BME280;6172;42.646;23.344;2023-02-03T02:27:02;94888.19;;;0.09;100.00
12219;BME280;6172;42.646;23.344;2023-02-03T02:29:58;94892.41;;;0.10;100.00
12219;BME280;6172;42.646;23.344;2023-02-03T02:32:43;94885.50;;;0.09;100.00
12219;BME280;6172;42.646;23.344;2023-02-03T02:35:19;94890.63;;;0.14;100.00
12219;BME280;6172;42.646;23.344;2023-02-03T02:37:55;94885.94;;;0.11;100.00
12219;BME280;6172;42.646;23.344;2023-02-03T02:40:31;94886.53;;;0.04;100.00
12219;BME280;6172;42.646;23.344;2023-02-03T02:43:05;94889.53;;;0.03;100.00
12219;BME280;6172;42.646;23.344;2023-02-03T02:45:40;94901.84;;;0.04;100.00
12219;BME280;6172;42.646;23.344;2023-02-03T02:48:18;94895.66;;;0.15;100.00
12219;BME280;6172;42.646;23.344;2023-02-03T02:50:49;94887.94;;;0.14;100.00
12219;BME280;6172;42.646;23.344;2023-02-03T02:53:19;94888.66;;;-0.01;100.00
12219;BME280;6172;42.646;23.344;2023-02-03T02:55:47;94891.78;;;0.01;100.00
12219;BME280;6172;42.646;23.344;2023-02-03T02:58:15;94888.66;;;-0.01;100.00
12219;BME280;6172;42.646;23.344;2023-02-03T03:00:44;94899.97;;;-0.08;100.00
12219;BME280;6172;42.646;23.344;2023-02-03T03:03:15;94882.59;;;-0.14;100.00
12219;BME280;6172;42.646;23.344;2023-02-03T03:05:47;94892.97;;;-0.12;100.00
12219;BME280;6172;42.646;23.344;2023-02-03T03:08:17;94890.97;;;-0.15;100.00
12219;BME280;6172;42.646;23.344;2023-02-03T03:10:46;94895.13;;;-0.18;100.00
12219;BME280;6172;42.646;23.344;2023-02-03T03:13:21;94902.69;;;-0.20;100.00
12219;BME280;6172;42.646;23.344;2023-02-03T03:15:51;94898.03;;;-0.23;100.00
12219;BME280;6172;42.646;23.344;2023-02-03T03:18:23;94902.03;;;-0.17;100.00
12219;BME280;6172;42.646;23.344;2023-02-03T03:20:54;94894.81;;;-0.28;100.00
12219;BME280;6172;42.646;23.344;2023-02-03T03:23:24;94910.09;;;-0.29;100.00
12219;BME280;6172;42.646;23.344;2023-02-03T03:25:58;94905.75;;;-0.33;100.00
12219;BME280;6172;42.646;23.344;2023-02-03T03:28:34;94891.78;;;-0.27;100.00
12219;BME280;6172;42.646;23.344;2023-02-03T03:31:03;94898.88;;;-0.19;100.00
12219;BME280;6172;42.646;23.344;2023-02-03T03:33:32;94887.19;;;-0.26;100.00
12219;BME280;6172;42.646;23.344;2023-02-03T03:36:03;94899.53;;;-0.10;100.00
12219;BME280;6172;42.646;23.344;2023-02-03T03:38:38;94903.38;;;-0.23;100.00
12219;BME280;6172;42.646;23.344;2023-02-03T03:41:08;94913.97;;;-0.26;100.00
12219;BME280;6172;42.646;23.344;2023-02-03T03:43:42;94896.84;;;-0.37;100.00
12219;BME280;6172;42.646;23.344;2023-02-03T03:46:18;94913.88;;;-0.30;100.00
12219;BME280;6172;42.646;23.344;2023-02-03T03:48:51;94912.91;;;-0.37;100.00
12219;BME280;6172;42.646;23.344;2023-02-03T03:51:28;94910.97;;;-0.25;100.00
12219;BME280;6172;42.646;23.344;2023-02-03T03:53:59;94914.44;;;-0.24;100.00
12219;BME280;6172;42.646;23.344;2023-02-03T03:56:31;94911.63;;;-0.28;100.00
12219;BME280;6172;42.646;23.344;2023-02-03T03:59:00;94908.19;;;-0.28;100.00
12219;BME280;6172;42.646;23.344;2023-02-03T04:01:29;94913.56;;;-0.28;100.00
12219;BME280;6172;42.646;23.344;2023-02-03T04:04:15;94922.56;;;-0.21;100.00
12219;BME280;6172;42.646;23.344;2023-02-03T04:06:42;94932.47;;;-0.09;100.00
12219;BME280;6172;42.646;23.344;2023-02-03T04:09:10;94928.59;;;-0.24;100.00
12219;BME280;6172;42.646;23.344;2023-02-03T04:11:37;94924.22;;;-0.16;100.00
12219;BME280;6172;42.646;23.344;2023-02-03T04:14:21;94940.06;;;-0.11;100.00
12219;BME280;6172;42.646;23.344;2023-02-03T04:16:48;94942.06;;;-0.08;100.00
12219;BME280;6172;42.646;23.344;2023-02-03T04:19:18;94932.03;;;-0.23;100.00
12219;BME280;6172;42.646;23.344;2023-02-03T04:21:44;94945.88;;;-0.21;100.00
12219;BME280;6172;42.646;23.344;2023-02-03T04:24:11;94970.19;;;-0.14;100.00
12219;BME280;6172;42.646;23.344;2023-02-03T04:26:39;94953.03;;;-0.25;100.00
12219;BME280;6172;42.646;23.344;2023-02-03T04:29:06;94971.38;;;0.00;100.00
12219;BME280;6172;42.646;23.344;2023-02-03T04:31:33;94979.56;;;-0.08;100.00
12219;BME280;6172;42.646;23.344;2023-02-03T04:34:00;94978.44;;;-0.07;100.00
12219;BME280;6172;42.646;23.344;2023-02-03T04:36:29;94980.88;;;-0.02;100.00
12219;BME280;6172;42.646;23.344;2023-02-03T04:38:56;94980.78;;;-0.06;100.00
12219;BME280;6172;42.646;23.344;2023-02-03T04:41:23;94978.44;;;-0.07;100.00
12219;BME280;6172;42.646;23.344;2023-02-03T04:43:50;94979.34;;;-0.15;100.00
12219;BME280;6172;42.646;23.344;2023-02-03T04:46:17;94984.91;;;-0.08;100.00
12219;BME280;6172;42.646;23.344;2023-02-03T04:48:44;95006.66;;;0.02;100.00
12219;BME280;6172;42.646;23.344;2023-02-03T04:51:11;94999.09;;;-0.08;100.00
12219;BME280;6172;42.646;23.344;2023-02-03T04:53:40;95005.00;;;-0.02;100.00
12219;BME280;6172;42.646;23.344;2023-02-03T04:56:10;94998.84;;;-0.03;100.00
12219;BME280;6172;42.646;23.344;2023-02-03T04:58:38;94991.34;;;0.03;100.00
12219;BME280;6172;42.646;23.344;2023-02-03T05:01:06;95006.22;;;0.00;100.00
12219;BME280;6172;42.646;23.344;2023-02-03T05:03:33;95001.53;;;-0.03;100.00
12219;BME280;6172;42.646;23.344;2023-02-03T05:06:00;95021.94;;;0.02;100.00
12219;BME280;6172;42.646;23.344;2023-02-03T05:08:28;95018.25;;;0.06;100.00
12219;BME280;6172;42.646;23.344;2023-02-03T05:10:57;95019.63;;;0.00;100.00
12219;BME280;6172;42.646;23.344;2023-02-03T05:13:24;95017.03;;;0.04;100.00
12219;BME280;6172;42.646;23.344;2023-02-03T05:15:51;95012.59;;;-0.04;100.00
12219;BME280;6172;42.646;23.344;2023-02-03T05:18:18;95014.91;;;0.09;100.00
12219;BME280;6172;42.646;23.344;2023-02-03T05:20:45;95034.69;;;0.05;100.00
12219;BME280;6172;42.646;23.344;2023-02-03T05:23:11;95032.09;;;0.08;100.00
12219;BME280;6172;42.646;23.344;2023-02-03T05:25:39;95030.47;;;-0.08;100.00
12219;BME280;6172;42.646;23.344;2023-02-03T05:28:08;95039.78;;;0.10;100.00
12219;BME280;6172;42.646;23.344;2023-02-03T05:30:35;95039.09;;;0.13;100.00
12219;BME280;6172;42.646;23.344;2023-02-03T05:33:02;95032.66;;;0.02;100.00
12219;BME280;6172;42.646;23.344;2023-02-03T05:35:29;95032.31;;;0.15;100.00
12219;BME280;6172;42.646;23.344;2023-02-03T05:37:56;95035.56;;;0.09;100.00
12219;BME280;6172;42.646;23.344;2023-02-03T05:40:24;95017.97;;;-0.16;100.00
12219;BME280;6172;42.646;23.344;2023-02-03T05:43:10;95028.19;;;-0.06;100.00
12219;BME280;6172;42.646;23.344;2023-02-03T05:45:37;95023.09;;;-0.23;100.00
12219;BME280;6172;42.646;23.344;2023-02-03T05:48:04;95044.28;;;-0.06;100.00
12219;BME280;6172;42.646;23.344;2023-02-03T05:50:31;95038.91;;;-0.06;100.00
12219;BME280;6172;42.646;23.344;2023-02-03T05:52:59;95045.88;;;-0.17;100.00
12219;BME280;6172;42.646;23.344;2023-02-03T05:55:26;95053.03;;;-0.33;100.00
12219;BME280;6172;42.646;23.344;2023-02-03T05:57:53;95049.00;;;-0.27;100.00
12219;BME280;6172;42.646;23.344;2023-02-03T06:00:22;95064.06;;;-0.23;100.00
12219;BME280;6172;42.646;23.344;2023-02-03T06:02:51;95059.72;;;-0.27;100.00
12219;BME280;6172;42.646;23.344;2023-02-03T06:05:18;95053.03;;;-0.33;100.00
12219;BME280;6172;42.646;23.344;2023-02-03T06:07:45;95050.78;;;-0.31;100.00
12219;BME280;6172;42.646;23.344;2023-02-03T06:10:12;95066.53;;;-0.30;100.00
12219;BME280;6172;42.646;23.344;2023-02-03T06:12:40;95041.88;;;-0.35;100.00
12219;BME280;6172;42.646;23.344;2023-02-03T06:15:09;95057.81;;;-0.27;100.00
12219;BME280;6172;42.646;23.344;2023-02-03T06:17:38;95063.81;;;-0.06;100.00
12219;BME280;6172;42.646;23.344;2023-02-03T06:20:06;95064.81;;;0.02;100.00
12219;BME280;6172;42.646;23.344;2023-02-03T06:22:34;95063.13;;;0.09;100.00
12219;BME280;6172;42.646;23.344;2023-02-03T06:25:01;95053.22;;;-0.02;100.00
12219;BME280;6172;42.646;23.344;2023-02-03T06:27:28;95067.81;;;0.12;100.00
12219;BME280;6172;42.646;23.344;2023-02-03T06:29:55;95067.25;;;0.07;100.00
12219;BME280;6172;42.646;23.344;2023-02-03T06:32:23;95079.44;;;0.04;100.00
12219;BME280;6172;42.646;23.344;2023-02-03T06:34:51;95080.44;;;0.12;100.00
12219;BME280;6172;42.646;23.344;2023-02-03T06:37:18;95080.44;;;0.12;100.00
12219;BME280;6172;42.646;23.344;2023-02-03T06:39:45;95078.09;;;0.10;100.00
12219;BME280;6172;42.646;23.344;2023-02-03T06:42:12;95084.41;;;0.30;100.00
12219;BME280;6172;42.646;23.344;2023-02-03T06:44:39;95087.13;;;1.13;100.00
12219;BME280;6172;42.646;23.344;2023-02-03T06:47:06;95067.69;;;1.97;100.00
12219;BME280;6172;42.646;23.344;2023-02-03T06:49:33;95069.63;;;3.07;95.73
12219;BME280;6172;42.646;23.344;2023-02-03T06:52:02;95076.53;;;4.17;81.83
12219;BME280;6172;42.646;23.344;2023-02-03T06:54:29;95072.94;;;4.98;73.15
12219;BME280;6172;42.646;23.344;2023-02-03T06:56:56;95069.19;;;5.06;71.34
12219;BME280;6172;42.646;23.344;2023-02-03T06:59:22;95054.78;;;5.28;68.33
12219;BME280;6172;42.646;23.344;2023-02-03T07:01:49;95072.91;;;5.68;65.17
12219;BME280;6172;42.646;23.344;2023-02-03T07:04:17;95060.78;;;5.95;62.60
12219;BME280;6172;42.646;23.344;2023-02-03T07:06:44;95072.41;;;5.99;60.27
12219;BME280;6172;42.646;23.344;2023-02-03T07:09:12;95054.84;;;6.26;58.09
12219;BME280;6172;42.646;23.344;2023-02-03T07:11:39;95055.34;;;6.46;56.54
12219;BME280;6172;42.646;23.344;2023-02-03T07:14:06;95048.56;;;6.76;55.48
12219;BME280;6172;42.646;23.344;2023-02-03T07:16:33;95046.34;;;6.31;54.77
12219;BME280;6172;42.646;23.344;2023-02-03T07:19:02;95036.00;;;6.51;54.40
12219;BME280;6172;42.646;23.344;2023-02-03T07:21:29;95042.59;;;6.46;53.01
12219;BME280;6172;42.646;23.344;2023-02-03T07:23:56;95043.69;;;6.38;53.71
12219;BME280;6172;42.646;23.344;2023-02-03T07:26:25;95044.97;;;6.55;52.62
12219;BME280;6172;42.646;23.344;2023-02-03T07:28:51;95056.19;;;6.57;53.11
12219;BME280;6172;42.646;23.344;2023-02-03T07:31:18;95053.78;;;6.48;52.35
12219;BME280;6172;42.646;23.344;2023-02-03T07:33:45;95061.38;;;6.86;51.68
12219;BME280;6172;42.646;23.344;2023-02-03T07:36:12;95070.75;;;6.38;51.58
12219;BME280;6172;42.646;23.344;2023-02-03T07:38:39;95075.13;;;6.53;52.19
12219;BME280;6172;42.646;23.344;2023-02-03T07:41:06;95075.34;;;5.80;52.62
12219;BME280;6172;42.646;23.344;2023-02-03T07:43:34;95081.31;;;5.19;54.43
12219;BME280;6172;42.646;23.344;2023-02-03T07:46:03;95082.72;;;5.10;56.03
12219;BME280;6172;42.646;23.344;2023-02-03T07:48:30;95089.78;;;5.18;56.65
12219;BME280;6172;42.646;23.344;2023-02-03T07:50:57;95081.03;;;5.31;55.85
12219;BME280;6172;42.646;23.344;2023-02-03T07:53:24;95094.41;;;4.84;56.30
12219;BME280;6172;42.646;23.344;2023-02-03T07:55:51;95092.22;;;4.97;57.74
12219;BME280;6172;42.646;23.344;2023-02-03T07:58:17;95095.09;;;4.78;57.79
12219;BME280;6172;42.646;23.344;2023-02-03T08:00:46;95101.84;;;5.27;57.57
12219;BME280;6172;42.646;23.344;2023-02-03T08:03:13;95098.94;;;5.10;56.96
12219;BME280;6172;42.646;23.344;2023-02-03T08:05:39;95092.97;;;5.63;55.97
12219;BME280;6172;42.646;23.344;2023-02-03T08:08:06;95100.63;;;5.58;55.24
12219;BME280;6172;42.646;23.344;2023-02-03T08:10:34;95112.06;;;5.41;55.72
12219;BME280;6172;42.646;23.344;2023-02-03T08:13:01;95110.97;;;5.16;55.22
12219;BME280;6172;42.646;23.344;2023-02-03T08:15:28;95117.03;;;5.06;56.54
12219;BME280;6172;42.646;23.344;2023-02-03T08:17:56;95114.47;;;5.16;56.73
12219;BME280;6172;42.646;23.344;2023-02-03T08:20:24;95117.03;;;5.06;56.93
12219;BME280;6172;42.646;23.344;2023-02-03T08:22:51;95128.50;;;5.29;56.65
12219;BME280;6172;42.646;23.344;2023-02-03T08:25:18;95126.09;;;5.20;56.55
12219;BME280;6172;42.646;23.344;2023-02-03T08:27:45;95128.94;;;5.31;56.31
12219;BME280;6172;42.646;23.344;2023-02-03T08:30:13;95129.44;;;5.80;55.25
12219;BME280;6172;42.646;23.344;2023-02-03T08:32:40;95129.50;;;5.47;55.39
12219;BME280;6172;42.646;23.344;2023-02-03T08:35:08;95127.72;;;6.05;54.41
12219;BME280;6172;42.646;23.344;2023-02-03T08:37:35;95131.66;;;6.11;53.14
12219;BME280;6172;42.646;23.344;2023-02-03T08:40:03;95123.66;;;6.29;52.11
12219;BME280;6172;42.646;23.344;2023-02-03T08:42:30;95127.47;;;6.21;51.80
12219;BME280;6172;42.646;23.344;2023-02-03T08:44:57;95134.38;;;6.65;50.90
12219;BME280;6172;42.646;23.344;2023-02-03T08:47:24;95125.28;;;6.94;50.55
12219;BME280;6172;42.646;23.344;2023-02-03T08:49:52;95135.66;;;6.82;50.12
12219;BME280;6172;42.646;23.344;2023-02-03T08:52:20;95137.25;;;6.86;49.93
12219;BME280;6172;42.646;23.344;2023-02-03T08:54:47;95138.66;;;6.66;49.28
12219;BME280;6172;42.646;23.344;2023-02-03T08:57:15;95139.94;;;6.86;50.04
12219;BME280;6172;42.646;23.344;2023-02-03T08:59:44;95145.59;;;6.60;50.61
12219;BME280;6172;42.646;23.344;2023-02-03T09:02:14;95139.16;;;6.86;50.14
12219;BME280;6172;42.646;23.344;2023-02-03T09:04:41;95137.53;;;6.20;50.82
12219;BME280;6172;42.646;23.344;2023-02-03T09:07:08;95130.88;;;6.61;51.34
12219;BME280;6172;42.646;23.344;2023-02-03T09:09:36;95145.31;;;6.79;50.95
12219;BME280;6172;42.646;23.344;2023-02-03T09:12:05;95144.63;;;6.39;51.62
12219;BME280;6172;42.646;23.344;2023-02-03T09:14:32;95142.63;;;6.29;52.94
12219;BME280;6172;42.646;23.344;2023-02-03T09:17:00;95133.31;;;6.80;51.66
12219;BME280;6172;42.646;23.344;2023-02-03T09:19:27;95118.09;;;7.33;50.44
12219;BME280;6172;42.646;23.344;2023-02-03T09:21:54;95111.78;;;7.08;50.14
12219;BME280;6172;42.646;23.344;2023-02-03T09:24:22;95116.72;;;6.89;50.30
12219;BME280;6172;42.646;23.344;2023-02-03T09:26:51;95121.78;;;6.90;51.03
12219;BME280;6172;42.646;23.344;2023-02-03T09:29:19;95112.19;;;7.10;50.73
12219;BME280;6172;42.646;23.344;2023-02-03T09:31:48;95119.53;;;6.45;51.64
12219;BME280;6172;42.646;23.344;2023-02-03T09:34:17;95124.06;;;6.85;51.90
12219;BME280;6172;42.646;23.344;2023-02-03T09:36:44;95113.25;;;6.92;51.09
12219;BME280;6172;42.646;23.344;2023-02-03T09:39:10;95127.72;;;6.05;51.29
12219;BME280;6172;42.646;23.344;2023-02-03T09:42:06;95130.72;;;5.93;52.60
12219;BME280;6172;42.646;23.344;2023-02-03T09:44:40;95125.09;;;5.72;51.71
12219;BME280;6172;42.646;23.344;2023-02-03T09:47:13;95116.13;;;5.61;53.16
12219;BME280;6172;42.646;23.344;2023-02-03T09:49:45;95124.09;;;5.47;53.44
12219;BME280;6172;42.646;23.344;2023-02-03T09:52:17;95118.28;;;5.85;52.28
12219;BME280;6172;42.646;23.344;2023-02-03T09:54:49;95116.38;;;5.89;51.48
12219;BME280;6172;42.646;23.344;2023-02-03T09:57:22;95116.66;;;5.37;51.54
12219;BME280;6172;42.646;23.344;2023-02-03T09:59:50;95107.59;;;4.89;51.25
12219;BME280;6172;42.646;23.344;2023-02-03T10:02:44;95120.84;;;4.72;52.13
12219;BME280;6172;42.646;23.344;2023-02-03T10:05:21;95110.59;;;4.84;52.24
12219;BME280;6172;42.646;23.344;2023-02-03T10:07:55;95112.53;;;4.84;52.96
12219;BME280;6172;42.646;23.344;2023-02-03T10:10:33;95094.00;;;4.27;52.85
12219;BME280;6172;42.646;23.344;2023-02-03T10:13:21;95099.47;;;4.60;54.08
12219;BME280;6172;42.646;23.344;2023-02-03T10:16:03;95099.38;;;5.12;53.99
12219;BME280;6172;42.646;23.344;2023-02-03T10:18:39;95096.47;;;5.67;52.60
12219;BME280;6172;42.646;23.344;2023-02-03T10:21:12;95096.88;;;6.17;51.91
12219;BME280;6172;42.646;23.344;2023-02-03T10:23:43;95096.13;;;6.70;50.53
12219;BME280;6172;42.646;23.344;2023-02-03T10:26:15;95090.94;;;7.19;48.90
12219;BME280;6172;42.646;23.344;2023-02-03T10:28:50;95082.41;;;6.46;49.17
12219;BME280;6172;42.646;23.344;2023-02-03T10:31:20;95080.59;;;6.60;49.03
12219;BME280;6172;42.646;23.344;2023-02-03T10:33:54;95094.72;;;7.04;48.11
12219;BME280;6172;42.646;23.344;2023-02-03T10:36:32;95072.31;;;7.14;47.31
12219;BME280;6172;42.646;23.344;2023-02-03T10:39:16;95076.94;;;7.03;45.13
12219;BME280;6172;42.646;23.344;2023-02-03T10:41:44;95068.75;;;6.89;44.88
12219;BME280;6172;42.646;23.344;2023-02-03T10:44:14;95064.63;;;6.48;45.83
12219;BME280;6172;42.646;23.344;2023-02-03T10:46:42;95080.88;;;5.94;46.69
12219;BME280;6172;42.646;23.344;2023-02-03T10:49:11;95071.09;;;5.39;48.60
12219;BME280;6172;42.646;23.344;2023-02-03T10:51:46;95083.94;;;5.49;49.68
12219;BME280;6172;42.646;23.344;2023-02-03T10:54:26;95075.75;;;5.42;48.86
12219;BME280;6172;42.646;23.344;2023-02-03T10:56:54;95082.91;;;4.91;50.04
12219;BME280;6172;42.646;23.344;2023-02-03T10:59:28;95077.69;;;4.46;50.01
12219;BME280;6172;42.646;23.344;2023-02-03T11:01:56;95084.97;;;4.16;50.64
12219;BME280;6172;42.646;23.344;2023-02-03T11:04:25;95093.59;;;4.25;50.74
12219;BME280;6172;42.646;23.344;2023-02-03T11:06:54;95098.69;;;4.07;51.13
12219;BME280;6172;42.646;23.344;2023-02-03T11:09:28;95095.75;;;4.16;51.36
12219;BME280;6172;42.646;23.344;2023-02-03T11:12:05;95102.41;;;3.99;50.89
12219;BME280;6172;42.646;23.344;2023-02-03T11:14:39;95099.53;;;4.11;49.87
12219;BME280;6172;42.646;23.344;2023-02-03T11:17:14;95098.09;;;3.95;49.08
12219;BME280;6172;42.646;23.344;2023-02-03T11:19:43;95089.56;;;4.41;48.72
12219;BME280;6172;42.646;23.344;2023-02-03T11:22:12;95071.00;;;4.95;47.53
12219;BME280;6172;42.646;23.344;2023-02-03T11:24:40;95086.94;;;5.04;50.13
12219;BME280;6172;42.646;23.344;2023-02-03T11:27:12;95075.25;;;4.67;49.84
12219;BME280;6172;42.646;23.344;2023-02-03T11:29:43;95067.81;;;4.57;51.03
12219;BME280;6172;42.646;23.344;2023-02-03T11:32:18;95058.25;;;4.63;50.33
12219;BME280;6172;42.646;23.344;2023-02-03T11:34:55;95053.69;;;4.37;50.59
12219;BME280;6172;42.646;23.344;2023-02-03T11:37:28;95068.56;;;4.87;51.48
12219;BME280;6172;42.646;23.344;2023-02-03T11:40:12;95043.44;;;5.52;48.25
12219;BME280;6172;42.646;23.344;2023-02-03T11:42:59;95047.41;;;5.65;47.46
12219;BME280;6172;42.646;23.344;2023-02-03T11:45:29;95039.75;;;5.74;46.20
12219;BME280;6172;42.646;23.344;2023-02-03T11:48:12;95041.09;;;5.51;46.04
12219;BME280;6172;42.646;23.344;2023-02-03T11:50:45;95032.13;;;5.87;46.69
12219;BME280;6172;42.646;23.344;2023-02-03T11:53:26;95040.53;;;6.29;45.61
12219;BME280;6172;42.646;23.344;2023-02-03T11:56:08;95033.00;;;6.59;44.85
12219;BME280;6172;42.646;23.344;2023-02-03T11:58:58;95034.94;;;6.62;43.38
12219;BME280;6172;42.646;23.344;2023-02-03T12:01:48;95040.13;;;6.27;43.03
12219;BME280;6172;42.646;23.344;2023-02-03T12:04:30;95028.44;;;6.13;43.71
12219;BME280;6172;42.646;23.344;2023-02-03T12:07:21;95041.00;;;5.84;43.88
12219;BME280;6172;42.646;23.344;2023-02-03T12:10:00;95029.06;;;5.92;43.14
12219;BME280;6172;42.646;23.344;2023-02-03T12:12:42;95035.06;;;6.22;42.42
12219;BME280;6172;42.646;23.344;2023-02-03T12:15:23;95037.06;;;6.32;41.17
12219;BME280;6172;42.646;23.344;2023-02-03T12:18:07;95043.72;;;6.45;41.75
12219;BME280;6172;42.646;23.344;2023-02-03T12:20:50;95030.53;;;6.37;40.47
12219;BME280;6172;42.646;23.344;2023-02-03T12:23:33;95026.69;;;5.84;40.85
12219;BME280;6172;42.646;23.344;2023-02-03T12:26:13;95044.19;;;5.53;41.36
12219;BME280;6172;42.646;23.344;2023-02-03T12:28:49;95047.06;;;4.94;41.34
12219;BME280;6172;42.646;23.344;2023-02-03T12:31:26;95048.75;;;4.17;42.24
12219;BME280;6172;42.646;23.344;2023-02-03T12:34:03;95050.03;;;4.00;42.99
12219;BME280;6172;42.646;23.344;2023-02-03T12:36:36;95035.81;;;3.55;43.66
12219;BME280;6172;42.646;23.344;2023-02-03T12:39:14;95045.03;;;3.54;44.36
12219;BME280;6172;42.646;23.344;2023-02-03T12:41:48;95041.22;;;3.77;44.79
12219;BME280;6172;42.646;23.344;2023-02-03T12:44:18;95017.97;;;4.18;44.68
12219;BME280;6172;42.646;23.344;2023-02-03T12:46:52;95032.03;;;4.34;44.06
12219;BME280;6172;42.646;23.344;2023-02-03T12:49:43;95019.50;;;4.19;44.35
12219;BME280;6172;42.646;23.344;2023-02-03T12:52:17;95009.44;;;4.45;44.73
12219;BME280;6172;42.646;23.344;2023-02-03T12:54:51;95014.09;;;4.48;44.56
12219;BME280;6172;42.646;23.344;2023-02-03T12:57:24;95006.25;;;4.36;45.04
12219;BME280;6172;42.646;23.344;2023-02-03T13:00:02;95001.59;;;4.33;45.70
12219;BME280;6172;42.646;23.344;2023-02-03T13:02:43;94996.56;;;4.32;45.49
12219;BME280;6172;42.646;23.344;2023-02-03T13:05:19;94998.91;;;4.33;45.47
12219;BME280;6172;42.646;23.344;2023-02-03T13:07:51;95001.63;;;4.37;45.87
12219;BME280;6172;42.646;23.344;2023-02-03T13:10:23;95018.69;;;4.15;46.55
12219;BME280;6172;42.646;23.344;2023-02-03T13:12:55;95009.53;;;3.97;47.03
12219;BME280;6172;42.646;23.344;2023-02-03T13:15:27;95010.56;;;3.89;48.04
12219;BME280;6172;42.646;23.344;2023-02-03T13:18:00;95018.03;;;3.73;48.63
12219;BME280;6172;42.646;23.344;2023-02-03T13:20:31;95025.75;;;3.74;49.58
12219;BME280;6172;42.646;23.344;2023-02-03T13:23:03;95012.03;;;3.83;49.54
12219;BME280;6172;42.646;23.344;2023-02-03T13:25:41;95005.28;;;3.70;50.05
12219;BME280;6172;42.646;23.344;2023-02-03T13:28:17;95008.97;;;3.36;50.68